Kihei, Hawaii
Current Conditions -  °F | °C
As of 5:54 AM on Friday 19 Dec 2014 (Local Time) from PHOG Reporting Station
Clear Clear  
Wind Chill: 64°   Ceiling: Unl
Heat Index: 64°   Visibility: 10mi
Dew Point: 60°   Wind: 5mph
Humidity: 87%   Direction: 170°S
Pressure: 30.08"   Gusts: NA
Location:  20.78°N, 156.46°W
Report Text: PHOG 191554Z 17004KT 10SM CLR 18/16 A3008 RMK AO2 SLP190 T01780156 $
Loading
Personal Weather Stations






























Interactive Weather Map New forecast layout! Learn more

10-Day Weather Forecast

Advertisements
Track Severe Weather on mobile